createdAt,value
2022-09-10T00:00:19.508Z,94587.09
2022-09-10T00:02:21.228Z,94581.38
2022-09-10T00:04:22.840Z,94579.78
2022-09-10T00:06:27.617Z,94582.66
2022-09-10T00:08:30.447Z,94585.56
2022-09-10T00:10:32.108Z,94581.88
2022-09-10T00:12:34.898Z,94573.59
2022-09-10T00:14:37.336Z,94581.88
2022-09-10T00:16:39.152Z,94586.13
2022-09-10T00:18:41.791Z,94584.28
2022-09-10T00:20:54.195Z,94584.53
2022-09-10T00:22:55.848Z,94588.22
2022-09-10T00:24:57.701Z,94583.72
2022-09-10T00:27:00.083Z,94580.56
2022-09-10T00:29:01.896Z,94577.34
2022-09-10T00:31:04.119Z,94585.34
2022-09-10T00:33:05.822Z,94576.53
2022-09-10T00:35:08.160Z,94587.56
2022-09-10T00:37:09.917Z,94587.78
2022-09-10T00:39:14.716Z,94585.56
2022-09-10T00:41:17.742Z,94589.41
2022-09-10T00:43:22.009Z,94584.66
2022-09-10T00:45:32.338Z,94588.13
2022-09-10T00:47:38.375Z,94580.38
2022-09-10T00:49:45.769Z,94583.59
2022-09-10T00:51:48.710Z,94585.47
2022-09-10T00:53:50.888Z,94587.22
2022-09-10T00:55:55.965Z,94585.47
2022-09-10T00:58:00.774Z,94579.69
2022-09-10T01:00:08.133Z,94577.94
2022-09-10T01:02:10.203Z,94581.66
2022-09-10T01:04:11.865Z,94570.97
2022-09-10T01:06:13.454Z,94571.78
2022-09-10T01:08:16.852Z,94579.66
2022-09-10T01:10:24.583Z,94573.97
2022-09-10T01:13:07.139Z,94571.56
2022-09-10T01:15:25.075Z,94575.81
2022-09-10T01:17:29.870Z,94571.56
2022-09-10T01:20:00.669Z,94566.22
2022-09-10T01:22:19.354Z,94559.03
2022-09-10T01:24:24.464Z,94551.94
2022-09-10T01:26:44.408Z,94557.19
2022-09-10T01:29:09.542Z,94559.59
2022-09-10T01:31:46.263Z,94554.97
2022-09-10T01:33:57.390Z,94549.59
2022-09-10T01:36:06.934Z,94546.44
2022-09-10T01:38:15.560Z,94547.25
2022-09-10T01:40:18.082Z,94550.88
2022-09-10T01:42:19.672Z,94543.47
2022-09-10T01:44:49.634Z,94541.16
2022-09-10T01:47:00.579Z,94548.59
2022-09-10T01:49:26.042Z,94546.41
2022-09-10T01:51:42.608Z,94544.41
2022-09-10T01:54:11.463Z,94560.31
2022-09-10T01:56:40.608Z,94555.31
2022-09-10T01:58:43.554Z,94559.94
2022-09-10T02:01:14.408Z,94564.03
2022-09-10T02:03:18.979Z,94571.34
2022-09-10T02:05:23.478Z,94576.19
2022-09-10T02:07:26.931Z,94574.59
2022-09-10T02:09:28.574Z,94574.81
2022-09-10T02:11:30.538Z,94567.84
2022-09-10T02:13:34.286Z,94570.50
2022-09-10T02:15:37.960Z,94556.25
2022-09-10T02:17:40.422Z,94559.38
2022-09-10T02:19:44.544Z,94572.69
2022-09-10T02:21:46.790Z,94570.03
2022-09-10T02:23:56.976Z,94565.75
2022-09-10T02:25:58.758Z,94560.44
2022-09-10T02:28:00.777Z,94564.47
2022-09-10T02:30:02.524Z,94558.44
2022-09-10T02:32:04.493Z,94558.69
2022-09-10T02:34:06.568Z,94554.16
2022-09-10T02:36:08.699Z,94566.25
2022-09-10T02:38:10.760Z,94575.28
2022-09-10T02:40:12.705Z,94576.16
2022-09-10T02:42:17.031Z,94571.88
2022-09-10T02:44:18.715Z,94578.16
2022-09-10T02:46:20.632Z,94568.75
2022-09-10T02:48:22.308Z,94569.66
2022-09-10T02:50:24.486Z,94572.22
2022-09-10T02:52:26.098Z,94573.94
2022-09-10T02:54:27.673Z,94582.44
2022-09-10T02:56:29.323Z,94579.56
2022-09-10T02:58:31.459Z,94574.91
2022-09-10T03:00:33.813Z,94581.34
2022-09-10T03:02:36.932Z,94574.25
2022-09-10T03:04:39.122Z,94574.88
2022-09-10T03:06:41.182Z,94566.09
2022-09-10T03:08:42.883Z,94572.72
2022-09-10T03:10:45.381Z,94571.78
2022-09-10T03:12:48.044Z,94574.81
2022-09-10T03:14:50.542Z,94570.78
2022-09-10T03:16:52.749Z,94574.97
2022-09-10T03:18:54.509Z,94574.41
2022-09-10T03:20:56.121Z,94573.28
2022-09-10T03:22:57.922Z,94578.75
2022-09-10T03:24:59.864Z,94575.63
2022-09-10T03:27:01.496Z,94567.19
2022-09-10T03:29:03.410Z,94565.47
2022-09-10T03:31:05.628Z,94561.06
2022-09-10T03:33:07.893Z,94559.38
2022-09-10T03:35:10.541Z,94562.63
2022-09-10T03:37:12.139Z,94557.66
2022-09-10T03:39:16.597Z,94557.66
2022-09-10T03:41:18.281Z,94552.66
2022-09-10T03:43:22.462Z,94554.28
2022-09-10T03:45:24.092Z,94543.94
2022-09-10T03:47:25.733Z,94551.16
2022-09-10T03:49:28.186Z,94548.84
2022-09-10T03:51:31.172Z,94550.91
2022-09-10T03:53:32.791Z,94547.69
2022-09-10T03:55:34.433Z,94536.06
2022-09-10T03:57:36.033Z,94535.16
2022-09-10T03:59:41.212Z,94536.47
2022-09-10T04:01:43.128Z,94541.44
2022-09-10T04:03:44.952Z,94550.34
2022-09-10T04:05:47.077Z,94556.38
2022-09-10T04:07:48.639Z,94543.41
2022-09-10T04:09:50.201Z,94548.84
2022-09-10T04:11:52.123Z,94542.63
2022-09-10T04:13:54.713Z,94546.22
2022-09-10T04:15:56.300Z,94550.38
2022-09-10T04:17:57.984Z,94551.59
2022-09-10T04:19:59.580Z,94558.09
2022-09-10T04:22:19.586Z,94559.47
2022-09-10T04:24:21.186Z,94575.59
2022-09-10T04:26:23.344Z,94577.00
2022-09-10T04:28:25.034Z,94579.66
2022-09-10T04:30:26.707Z,94585.91
2022-09-10T04:32:28.397Z,94575.34
2022-09-10T04:34:29.950Z,94579.47
2022-09-10T04:36:31.551Z,94577.25
2022-09-10T04:38:33.740Z,94573.66
2022-09-10T04:40:35.590Z,94572.59
2022-09-10T04:42:37.266Z,94568.53
2022-09-10T04:44:39.054Z,94564.22
2022-09-10T04:46:42.035Z,94566.25
2022-09-10T04:48:43.644Z,94566.53
2022-09-10T04:51:05.386Z,94551.22
2022-09-10T04:53:07.993Z,94543.03
2022-09-10T04:55:10.575Z,94550.81
2022-09-10T04:57:12.522Z,94554.75
2022-09-10T04:59:14.215Z,94548.66
2022-09-10T05:01:15.977Z,94543.81
2022-09-10T05:03:18.329Z,94542.91
2022-09-10T05:05:19.896Z,94546.50
2022-09-10T05:07:21.445Z,94546.03
2022-09-10T05:09:23.338Z,94550.91
2022-09-10T05:11:25.424Z,94551.16
2022-09-10T05:13:26.970Z,94556.47
2022-09-10T05:15:28.711Z,94558.34
2022-09-10T05:17:30.331Z,94558.81
2022-09-10T05:19:31.965Z,94576.88
2022-09-10T05:21:33.866Z,94568.41
2022-09-10T05:23:35.450Z,94564.28
2022-09-10T05:25:37.743Z,94571.31
2022-09-10T05:27:39.611Z,94574.41
2022-09-10T05:29:41.260Z,94578.44
2022-09-10T05:31:43.059Z,94579.91
2022-09-10T05:33:44.790Z,94582.28
2022-09-10T05:35:49.152Z,94576.38
2022-09-10T05:37:50.842Z,94576.09
2022-09-10T05:39:52.444Z,94573.66
2022-09-10T05:41:55.651Z,94581.47
2022-09-10T05:43:57.733Z,94568.69
2022-09-10T05:45:59.363Z,94566.22
2022-09-10T05:48:01.161Z,94570.94
2022-09-10T05:50:02.765Z,94572.50
2022-09-10T05:52:04.399Z,94571.00
2022-09-10T05:54:06.098Z,94571.78
2022-09-10T05:56:07.962Z,94561.00
2022-09-10T05:58:09.672Z,94567.03
2022-09-10T06:00:11.816Z,94570.88
2022-09-10T06:02:21.797Z,94570.63
2022-09-10T06:04:25.616Z,94572.56
2022-09-10T06:06:28.424Z,94564.13
2022-09-10T06:08:31.440Z,94561.22
2022-09-10T06:10:33.474Z,94564.47
2022-09-10T06:12:36.240Z,94568.66
2022-09-10T06:14:38.021Z,94567.84
2022-09-10T06:16:39.688Z,94574.78
2022-09-10T06:18:42.652Z,94572.34
2022-09-10T06:20:44.276Z,94574.56
2022-09-10T06:22:45.901Z,94569.72
2022-09-10T06:24:50.280Z,94570.16
2022-09-10T06:26:52.109Z,94568.03
2022-09-10T06:28:55.328Z,94564.69
2022-09-10T06:30:57.037Z,94567.38
2022-09-10T06:32:58.679Z,94566.09
2022-09-10T06:35:00.350Z,94573.84
2022-09-10T06:37:03.496Z,94573.38
2022-09-10T06:39:07.147Z,94577.81
2022-09-10T06:41:13.565Z,94578.84
2022-09-10T06:43:15.226Z,94571.97
2022-09-10T06:45:16.937Z,94572.91
2022-09-10T06:48:06.553Z,94569.03
2022-09-10T06:49:40.848Z,94566.34
2022-09-10T06:51:42.557Z,94563.16
2022-09-10T06:53:47.988Z,94559.84
2022-09-10T06:55:51.140Z,94562.81
2022-09-10T06:57:52.932Z,94564.88
2022-09-10T06:59:54.532Z,94565.59
2022-09-10T07:01:56.367Z,94562.38
2022-09-10T07:03:59.644Z,94553.78
2022-09-10T07:06:05.963Z,94555.34
2022-09-10T07:08:07.597Z,94556.81
2022-09-10T07:10:09.530Z,94562.75
2022-09-10T07:12:11.406Z,94567.66
2022-09-10T07:14:14.025Z,94566.38
2022-09-10T07:16:21.532Z,94569.09
2022-09-10T07:18:24.449Z,94566.59
2022-09-10T07:20:27.194Z,94561.50
2022-09-10T07:22:28.757Z,94554.59
2022-09-10T07:24:30.401Z,94558.84
2022-09-10T07:26:32.537Z,94552.41
2022-09-10T07:28:34.214Z,94555.84
2022-09-10T07:30:36.113Z,94556.63
2022-09-10T07:32:37.771Z,94562.19
2022-09-10T07:34:39.484Z,94560.97
2022-09-10T07:36:41.094Z,94564.44
2022-09-10T07:38:43.260Z,94565.44
2022-09-10T07:40:44.913Z,94562.19
2022-09-10T07:42:46.497Z,94557.97
2022-09-10T07:44:48.082Z,94566.19
2022-09-10T07:46:49.762Z,94566.41
2022-09-10T07:48:57.062Z,94574.06
2022-09-10T07:51:06.138Z,94581.22
2022-09-10T07:53:07.818Z,94576.97
2022-09-10T07:55:09.866Z,94572.75
2022-09-10T07:57:11.648Z,94574.28
2022-09-10T07:59:13.417Z,94568.19
2022-09-10T08:01:15.360Z,94576.00
2022-09-10T08:03:18.333Z,94570.25
2022-09-10T08:05:19.960Z,94573.88
2022-09-10T08:07:21.601Z,94571.25
2022-09-10T08:09:23.313Z,94572.66
2022-09-10T08:11:25.353Z,94574.06
2022-09-10T08:13:29.922Z,94575.06
2022-09-10T08:15:31.527Z,94567.25
2022-09-10T08:17:34.303Z,94570.69
2022-09-10T08:19:36.904Z,94561.56
2022-09-10T08:21:38.645Z,94562.19
2022-09-10T08:23:40.360Z,94554.56
2022-09-10T08:25:51.353Z,94551.28
2022-09-10T08:28:11.749Z,94548.88
2022-09-10T08:30:14.896Z,94543.09
2022-09-10T08:32:16.706Z,94550.59
2022-09-10T08:34:18.323Z,94550.38
2022-09-10T08:36:22.022Z,94549.88
2022-09-10T08:38:30.463Z,94547.72
2022-09-10T08:40:32.654Z,94543.44
2022-09-10T08:42:40.145Z,94544.00
2022-09-10T08:44:49.915Z,94543.13
2022-09-10T08:47:20.454Z,94541.47
2022-09-10T08:49:36.911Z,94538.53
2022-09-10T08:51:45.761Z,94540.56
2022-09-10T08:53:56.044Z,94543.59
2022-09-10T08:56:03.546Z,94547.41
2022-09-10T08:58:13.606Z,94547.22
2022-09-10T09:00:21.306Z,94546.81
2022-09-10T09:02:49.021Z,94547.34
2022-09-10T09:04:58.537Z,94546.13
2022-09-10T09:07:02.986Z,94546.41
2022-09-10T09:09:04.949Z,94549.31
2022-09-10T09:11:12.648Z,94539.94
2022-09-10T09:14:02.030Z,94530.88
2022-09-10T09:16:28.133Z,94529.13
2022-09-10T09:18:41.817Z,94526.81
2022-09-10T09:20:49.173Z,94525.63
2022-09-10T09:23:07.798Z,94518.28
2022-09-10T09:25:27.945Z,94516.31
2022-09-10T09:27:32.333Z,94508.06
2022-09-10T09:29:52.742Z,94508.13
2022-09-10T09:31:58.787Z,94501.22
2022-09-10T09:34:13.183Z,94499.41
2022-09-10T09:36:18.826Z,94485.53
2022-09-10T09:38:25.649Z,94486.72
2022-09-10T09:40:46.196Z,94494.81
2022-09-10T09:42:58.329Z,94486.25
2022-09-10T09:45:03.933Z,94485.28
2022-09-10T09:47:05.530Z,94479.69
2022-09-10T09:49:11.875Z,94468.50
2022-09-10T09:51:16.090Z,94477.66
2022-09-10T09:53:21.944Z,94465.84
2022-09-10T09:55:23.691Z,94463.72
2022-09-10T09:57:25.318Z,94465.63
2022-09-10T09:59:31.966Z,94449.50
2022-09-10T10:01:34.534Z,94449.47
2022-09-10T10:03:51.649Z,94444.63
2022-09-10T10:06:08.494Z,94443.53
2022-09-10T10:08:26.246Z,94440.25
2022-09-10T10:10:28.304Z,94442.09
2022-09-10T10:12:33.855Z,94437.16
2022-09-10T10:14:41.612Z,94432.00
2022-09-10T10:16:43.330Z,94424.13
2022-09-10T10:18:46.111Z,94424.06
2022-09-10T10:20:48.799Z,94416.25
2022-09-10T10:22:50.403Z,94409.38
2022-09-10T10:24:54.075Z,94417.94
2022-09-10T10:26:55.915Z,94410.34
2022-09-10T10:28:59.841Z,94410.22
2022-09-10T10:31:01.646Z,94412.84
2022-09-10T10:33:03.842Z,94392.53
2022-09-10T10:35:11.658Z,94396.00
2022-09-10T10:37:43.803Z,94391.66
2022-09-10T10:40:10.108Z,94398.53
2022-09-10T10:42:35.601Z,94398.88
2022-09-10T10:45:01.930Z,94405.59
2022-09-10T10:47:25.402Z,94395.47
2022-09-10T10:49:53.317Z,94393.53
2022-09-10T10:52:04.387Z,94394.28
2022-09-10T10:54:24.537Z,94390.56
2022-09-10T10:56:44.824Z,94381.13
2022-09-10T10:59:09.404Z,94376.88
2022-09-10T11:01:23.137Z,94374.41
2022-09-10T11:03:59.545Z,94378.38
2022-09-10T11:06:05.212Z,94368.25
2022-09-10T11:08:15.139Z,94373.94
2022-09-10T11:10:54.661Z,94378.56
2022-09-10T11:13:18.929Z,94425.25
2022-09-10T11:15:38.843Z,94433.31
2022-09-10T11:17:48.757Z,94444.69
2022-09-10T11:20:27.391Z,94485.72
2022-09-10T11:22:33.636Z,94514.59
2022-09-10T11:24:43.217Z,94477.28
2022-09-10T11:26:48.869Z,94475.22
2022-09-10T11:29:07.808Z,94497.72
2022-09-10T11:31:15.866Z,94511.81
2022-09-10T11:33:23.453Z,94482.81
2022-09-10T11:35:35.325Z,94467.34
2022-09-10T11:38:01.420Z,94469.63
2022-09-10T11:40:06.938Z,94481.00
2022-09-10T11:42:36.195Z,94478.72
2022-09-10T11:44:45.961Z,94481.00
2022-09-10T11:46:57.271Z,94474.63
2022-09-10T11:49:16.158Z,94466.53
2022-09-10T11:51:30.712Z,94475.09
2022-09-10T11:53:32.452Z,94472.91
2022-09-10T11:56:23.302Z,94473.25
2022-09-10T11:58:53.063Z,94483.41
2022-09-10T12:01:05.018Z,94478.41
2022-09-10T12:03:20.289Z,94466.00
2022-09-10T12:05:46.561Z,94453.94
2022-09-10T12:07:53.906Z,94458.22
2022-09-10T12:10:20.379Z,94473.75
2022-09-10T12:12:40.987Z,94476.19
2022-09-10T12:14:42.832Z,94472.38
2022-09-10T12:16:49.122Z,94445.53
2022-09-10T12:18:53.258Z,94429.09
2022-09-10T12:20:59.464Z,94427.66
2022-09-10T12:23:01.269Z,94424.97
2022-09-10T12:25:06.348Z,94420.13
2022-09-10T12:27:16.093Z,94418.63
2022-09-10T12:29:34.495Z,94407.66
2022-09-10T12:32:16.185Z,94404.06
2022-09-10T12:34:19.603Z,94409.88
2022-09-10T12:36:27.300Z,94408.59
2022-09-10T12:38:56.334Z,94397.91
2022-09-10T12:40:57.913Z,94394.28
2022-09-10T12:43:04.237Z,94384.22
2022-09-10T12:45:08.762Z,94376.84
2022-09-10T12:47:16.495Z,94377.47
2022-09-10T12:49:18.203Z,94371.09
2022-09-10T12:51:19.985Z,94366.56
2022-09-10T12:53:42.965Z,94361.50
2022-09-10T12:56:02.233Z,94357.88
2022-09-10T12:58:40.017Z,94354.72
2022-09-10T13:00:58.184Z,94362.84
2022-09-10T13:03:15.270Z,94360.47
2022-09-10T13:05:31.756Z,94353.03
2022-09-10T13:07:40.282Z,94348.56
2022-09-10T13:09:42.024Z,94340.09
2022-09-10T13:11:47.411Z,94350.13
2022-09-10T13:13:48.983Z,94349.09
2022-09-10T13:15:52.290Z,94349.66
2022-09-10T13:17:54.573Z,94351.91
2022-09-10T13:20:14.864Z,94352.22
2022-09-10T13:22:36.224Z,94346.31
2022-09-10T13:24:39.374Z,94342.34
2022-09-10T13:26:52.527Z,94337.28
2022-09-10T13:28:54.719Z,94346.47
2022-09-10T13:31:13.126Z,94347.56
2022-09-10T13:33:21.488Z,94355.06
2022-09-10T13:35:47.312Z,94356.09
2022-09-10T13:37:48.990Z,94351.25
2022-09-10T13:40:08.103Z,94350.16
2022-09-10T13:42:24.941Z,94353.34
2022-09-10T13:45:01.048Z,94351.13
2022-09-10T13:47:09.330Z,94357.03
2022-09-10T13:49:19.385Z,94356.69
2022-09-10T13:51:46.363Z,94360.94
2022-09-10T13:53:49.160Z,94353.56
2022-09-10T13:55:59.073Z,94347.91
2022-09-10T13:58:06.493Z,94332.16
2022-09-10T14:00:17.909Z,94330.84
2022-09-10T14:02:21.307Z,94327.38
2022-09-10T14:04:24.063Z,94319.94
2022-09-10T14:06:25.814Z,94317.06
2022-09-10T14:08:27.445Z,94320.31
2022-09-10T14:10:29.510Z,94321.69
2022-09-10T14:12:34.573Z,94314.22
2022-09-10T14:14:39.765Z,94311.03
2022-09-10T14:16:48.167Z,94312.38
2022-09-10T14:18:53.519Z,94304.88
2022-09-10T14:20:55.198Z,94319.38
2022-09-10T14:23:02.675Z,94314.88
2022-09-10T14:25:05.350Z,94313.88
2022-09-10T14:27:13.581Z,94315.00
2022-09-10T14:29:25.589Z,94311.81
2022-09-10T14:31:33.646Z,94313.16
2022-09-10T14:33:36.357Z,94311.00
2022-09-10T14:35:43.277Z,94313.69
2022-09-10T14:37:44.892Z,94306.97
2022-09-10T14:39:47.457Z,94313.41
2022-09-10T14:41:49.803Z,94305.66
2022-09-10T14:44:23.216Z,94296.81
2022-09-10T14:46:54.503Z,94286.88
2022-09-10T14:48:58.802Z,94290.63
2022-09-10T14:51:22.783Z,94293.03
2022-09-10T14:53:24.583Z,94291.72
2022-09-10T14:55:27.338Z,94291.72
2022-09-10T14:57:28.967Z,94284.47
2022-09-10T14:59:41.657Z,94283.09
2022-09-10T15:01:45.457Z,94290.84
2022-09-10T15:03:47.129Z,94294.56
2022-09-10T15:05:48.777Z,94297.69
2022-09-10T15:07:50.453Z,94299.16
2022-09-10T15:09:53.551Z,94305.22
2022-09-10T15:12:05.960Z,94299.53
2022-09-10T15:14:10.620Z,94309.44
2022-09-10T15:16:12.356Z,94315.59
2022-09-10T15:18:15.137Z,94330.88
2022-09-10T15:20:17.000Z,94333.75
2022-09-10T15:22:28.284Z,94335.97
2022-09-10T15:24:29.905Z,94342.72
2022-09-10T15:26:31.481Z,94337.88
2022-09-10T15:28:33.611Z,94336.53
2022-09-10T15:30:36.863Z,94335.50
2022-09-10T15:32:38.503Z,94335.81
2022-09-10T15:34:40.831Z,94331.22
2022-09-10T15:36:42.511Z,94341.09
2022-09-10T15:38:44.093Z,94339.63
2022-09-10T15:40:48.830Z,94348.81
2022-09-10T15:42:52.358Z,94349.47
2022-09-10T15:44:53.816Z,94350.47
2022-09-10T15:46:55.780Z,94352.41
2022-09-10T15:48:59.452Z,94356.47
2022-09-10T15:51:05.653Z,94352.75
2022-09-10T15:53:11.736Z,94359.78
2022-09-10T15:55:14.067Z,94349.34
2022-09-10T15:57:15.729Z,94352.03
2022-09-10T15:59:17.510Z,94355.25
2022-09-10T16:01:19.416Z,94357.66
2022-09-10T16:03:21.525Z,94354.97
2022-09-10T16:05:23.157Z,94355.03
2022-09-10T16:07:24.885Z,94358.06
2022-09-10T16:09:26.524Z,94354.97
2022-09-10T16:11:31.176Z,94359.13
2022-09-10T16:13:32.981Z,94359.22
2022-09-10T16:15:37.155Z,94350.66
2022-09-10T16:17:38.864Z,94354.66
2022-09-10T16:19:40.562Z,94356.81
2022-09-10T16:21:43.459Z,94355.94
2022-09-10T16:23:46.852Z,94354.91
2022-09-10T16:25:53.161Z,94353.28
2022-09-10T16:27:54.768Z,94351.91
2022-09-10T16:29:56.395Z,94347.84
2022-09-10T16:31:58.187Z,94346.69
2022-09-10T16:34:05.105Z,94350.69
2022-09-10T16:36:07.267Z,94355.94
2022-09-10T16:38:09.150Z,94356.69
2022-09-10T16:40:11.649Z,94359.53
2022-09-10T16:42:13.651Z,94364.56
2022-09-10T16:44:16.894Z,94364.47
2022-09-10T16:46:18.718Z,94364.03
2022-09-10T16:48:20.355Z,94364.25
2022-09-10T16:50:23.131Z,94371.66
2022-09-10T16:52:24.728Z,94364.66
2022-09-10T16:54:26.701Z,94376.34
2022-09-10T16:56:39.906Z,94376.00
2022-09-10T16:58:45.237Z,94383.56
2022-09-10T17:00:49.754Z,94373.75
2022-09-10T17:02:53.034Z,94387.59
2022-09-10T17:04:55.462Z,94388.53
2022-09-10T17:06:57.867Z,94401.50
2022-09-10T17:09:01.398Z,94394.22
2022-09-10T17:11:02.888Z,94402.81
2022-09-10T17:13:04.490Z,94410.28
2022-09-10T17:15:07.210Z,94411.81
2022-09-10T17:17:09.885Z,94408.00
2022-09-10T17:19:17.576Z,94414.22
2022-09-10T17:21:19.379Z,94411.31
2022-09-10T17:23:20.991Z,94409.78
2022-09-10T17:25:22.586Z,94418.03
2022-09-10T17:27:25.680Z,94414.72
2022-09-10T17:29:27.453Z,94413.84
2022-09-10T17:31:29.945Z,94416.44
2022-09-10T17:33:31.994Z,94415.63
2022-09-10T17:35:33.633Z,94416.09
2022-09-10T17:37:35.907Z,94412.41
2022-09-10T17:39:37.599Z,94417.50
2022-09-10T17:41:39.711Z,94409.50
2022-09-10T17:43:42.934Z,94410.28
2022-09-10T17:45:44.686Z,94415.41
2022-09-10T17:47:46.360Z,94415.41
2022-09-10T17:49:48.114Z,94410.06
2022-09-10T17:51:49.790Z,94418.56
2022-09-10T17:53:52.957Z,94423.09
2022-09-10T17:55:54.845Z,94423.31
2022-09-10T17:57:56.497Z,94423.56
2022-09-10T17:59:58.140Z,94423.31
2022-09-10T18:01:59.748Z,94425.75
2022-09-10T18:04:01.733Z,94423.09
2022-09-10T18:06:08.826Z,94425.53
2022-09-10T18:08:11.339Z,94425.53
2022-09-10T18:10:13.232Z,94426.34
2022-09-10T18:12:15.057Z,94423.81
2022-09-10T18:14:18.643Z,94424.81
2022-09-10T18:16:26.229Z,94427.72
2022-09-10T18:18:28.100Z,94431.13
2022-09-10T18:20:30.070Z,94433.72
2022-09-10T18:22:33.298Z,94429.88
2022-09-10T18:24:34.859Z,94427.38
2022-09-10T18:26:39.460Z,94439.00
2022-09-10T18:28:42.720Z,94441.34
2022-09-10T18:30:44.276Z,94447.50
2022-09-10T18:32:47.707Z,94443.22
2022-09-10T18:34:49.482Z,94441.50
2022-09-10T18:36:54.463Z,94448.31
2022-09-10T18:38:56.280Z,94446.94
2022-09-10T18:40:57.940Z,94453.31
2022-09-10T18:42:59.601Z,94464.22
2022-09-10T18:45:01.188Z,94470.63
2022-09-10T18:47:14.266Z,94463.78
2022-09-10T18:49:25.159Z,94476.69
2022-09-10T18:51:29.706Z,94473.16
2022-09-10T18:53:32.308Z,94480.66
2022-09-10T18:55:34.174Z,94483.69
2022-09-10T18:57:36.577Z,94492.31
2022-09-10T18:59:38.392Z,94495.47
2022-09-10T19:01:43.990Z,94499.53
2022-09-10T19:03:47.836Z,94503.47
2022-09-10T19:05:49.701Z,94504.38
2022-09-10T19:07:51.798Z,94509.25
2022-09-10T19:09:53.973Z,94506.81
2022-09-10T19:11:57.127Z,94504.38
2022-09-10T19:14:00.043Z,94502.41
2022-09-10T19:16:02.689Z,94504.84
2022-09-10T19:18:06.413Z,94497.78
2022-09-10T19:20:09.089Z,94498.72
2022-09-10T19:22:13.471Z,94503.22
2022-09-10T19:24:16.274Z,94505.34
2022-09-10T19:26:19.216Z,94498.84
2022-09-10T19:28:21.093Z,94495.72
2022-09-10T19:30:22.718Z,94496.53
2022-09-10T19:32:24.314Z,94490.63
2022-09-10T19:34:26.928Z,94488.31
2022-09-10T19:36:31.713Z,94483.78
2022-09-10T19:38:37.842Z,94484.59
2022-09-10T19:40:39.717Z,94485.50
2022-09-10T19:42:41.449Z,94486.88
2022-09-10T19:44:43.682Z,94476.31
2022-09-10T19:46:45.883Z,94476.44
2022-09-10T19:48:48.069Z,94476.75
2022-09-10T19:50:50.028Z,94470.63
2022-09-10T19:52:51.880Z,94469.81
2022-09-10T19:54:53.676Z,94474.88
2022-09-10T19:56:56.383Z,94472.22
2022-09-10T19:58:58.478Z,94479.09
2022-09-10T20:01:00.126Z,94474.78
2022-09-10T20:03:01.996Z,94483.03
2022-09-10T20:05:04.629Z,94484.81
2022-09-10T20:07:06.825Z,94486.44
2022-09-10T20:09:10.132Z,94492.38
2022-09-10T20:11:19.850Z,94493.88
2022-09-10T20:13:21.494Z,94499.81
2022-09-10T20:15:23.596Z,94505.59
2022-09-10T20:17:25.198Z,94502.00
2022-09-10T20:19:27.070Z,94512.66
2022-09-10T20:21:31.662Z,94512.22
2022-09-10T20:23:36.257Z,94516.84
2022-09-10T20:25:38.563Z,94510.34
2022-09-10T20:27:40.105Z,94521.59
2022-09-10T20:29:43.330Z,94524.84
2022-09-10T20:31:47.049Z,94532.03
2022-09-10T20:33:49.391Z,94528.66
2022-09-10T20:35:51.166Z,94530.06
2022-09-10T20:37:52.721Z,94533.06
2022-09-10T20:39:56.780Z,94531.66
2022-09-10T20:41:59.056Z,94534.19
2022-09-10T20:44:01.649Z,94533.81
2022-09-10T20:46:03.464Z,94526.41
2022-09-10T20:48:05.135Z,94530.22
2022-09-10T20:50:06.943Z,94525.78
2022-09-10T20:52:08.524Z,94528.44
2022-09-10T20:54:15.997Z,94535.63
2022-09-10T20:56:19.333Z,94534.72
2022-09-10T20:58:20.908Z,94541.75
2022-09-10T21:00:22.967Z,94531.31
2022-09-10T21:02:25.304Z,94520.81
2022-09-10T21:04:27.072Z,94536.06
2022-09-10T21:06:31.343Z,94534.31
2022-09-10T21:08:33.132Z,94533.97
2022-09-10T21:10:36.699Z,94532.31
2022-09-10T21:12:38.310Z,94534.31
2022-09-10T21:14:39.857Z,94534.19
2022-09-10T21:16:43.237Z,94535.81
2022-09-10T21:18:54.172Z,94537.31
2022-09-10T21:21:16.187Z,94540.09
2022-09-10T21:23:20.202Z,94535.72
2022-09-10T21:25:22.152Z,94540.81
2022-09-10T21:27:24.207Z,94540.16
2022-09-10T21:29:25.813Z,94533.09
2022-09-10T21:31:28.316Z,94526.16
2022-09-10T21:33:30.014Z,94525.47
2022-09-10T21:35:31.828Z,94525.56
2022-09-10T21:37:33.425Z,94531.94
2022-09-10T21:39:35.163Z,94527.44
2022-09-10T21:41:42.649Z,94534.63
2022-09-10T21:43:45.948Z,94539.69
2022-09-10T21:45:48.459Z,94538.88
2022-09-10T21:47:50.038Z,94539.94
2022-09-10T21:49:51.936Z,94537.28
2022-09-10T21:51:53.648Z,94541.91
2022-09-10T21:53:56.456Z,94538.19
2022-09-10T21:55:59.043Z,94542.28
2022-09-10T21:58:00.751Z,94539.38
2022-09-10T22:00:02.630Z,94540.28
2022-09-10T22:02:04.388Z,94532.75
2022-09-10T22:04:06.269Z,94543.19
2022-09-10T22:06:10.067Z,94541.34
2022-09-10T22:08:11.693Z,94542.34
2022-09-10T22:10:13.387Z,94548.63
2022-09-10T22:12:14.967Z,94544.31
2022-09-10T22:14:18.591Z,94544.31
2022-09-10T22:16:21.011Z,94540.16
2022-09-10T22:18:22.629Z,94546.53
2022-09-10T22:20:24.217Z,94541.78
2022-09-10T22:22:26.099Z,94537.63
2022-09-10T22:24:27.755Z,94533.94
2022-09-10T22:26:29.389Z,94530.00
2022-09-10T22:28:34.872Z,94539.84
2022-09-10T22:30:37.056Z,94539.56
2022-09-10T22:32:39.657Z,94544.19
2022-09-10T22:34:41.415Z,94547.03
2022-09-10T22:36:44.326Z,94546.47
2022-09-10T22:38:53.637Z,94546.41
2022-09-10T22:40:57.032Z,94552.22
2022-09-10T22:42:58.881Z,94552.13
2022-09-10T22:45:01.416Z,94571.28
2022-09-10T22:47:03.137Z,94556.09
2022-09-10T22:49:05.811Z,94553.53
2022-09-10T22:51:12.623Z,94554.38
2022-09-10T22:53:14.640Z,94551.72
2022-09-10T22:55:16.237Z,94548.28
2022-09-10T22:57:18.497Z,94540.47
2022-09-10T22:59:20.113Z,94539.41
2022-09-10T23:01:24.920Z,94536.38
2022-09-10T23:03:27.165Z,94531.06
2022-09-10T23:05:28.906Z,94529.25
2022-09-10T23:07:30.446Z,94532.31
2022-09-10T23:09:32.157Z,94524.56
2022-09-10T23:11:34.536Z,94528.72
2022-09-10T23:13:36.253Z,94533.53
2022-09-10T23:15:37.949Z,94526.88
2022-09-10T23:17:39.632Z,94532.66
2022-09-10T23:19:41.223Z,94525.47
2022-09-10T23:21:45.727Z,94531.25
2022-09-10T23:23:48.631Z,94528.22
2022-09-10T23:25:50.465Z,94529.28
2022-09-10T23:27:52.205Z,94529.03
2022-09-10T23:29:53.811Z,94528.59
2022-09-10T23:31:55.368Z,94534.25
2022-09-10T23:33:59.384Z,94529.41
2022-09-10T23:36:03.237Z,94531.00
2022-09-10T23:38:04.817Z,94537.75
2022-09-10T23:40:07.549Z,94527.25
2022-09-10T23:42:09.278Z,94531.88
2022-09-10T23:44:10.889Z,94534.75
2022-09-10T23:46:12.668Z,94531.31
2022-09-10T23:48:14.299Z,94538.56
2022-09-10T23:50:16.493Z,94534.50
2022-09-10T23:52:18.379Z,94537.16
2022-09-10T23:54:20.152Z,94533.44
2022-09-10T23:56:23.558Z,94527.47
2022-09-10T23:58:25.344Z,94530.50
